createdAt,value
2022-12-27T00:03:34.345Z,100
2022-12-27T00:08:33.518Z,100
2022-12-27T00:13:33.423Z,100
2022-12-27T00:18:33.506Z,100
2022-12-27T00:23:35.119Z,100
2022-12-27T00:28:33.683Z,100
2022-12-27T00:33:34.803Z,100
2022-12-27T00:38:33.655Z,100
2022-12-27T00:43:33.681Z,100
2022-12-27T00:48:33.694Z,100
2022-12-27T00:53:34.086Z,100
2022-12-27T00:58:35.989Z,100
2022-12-27T01:03:33.649Z,100
2022-12-27T01:08:34.057Z,100
2022-12-27T01:13:33.791Z,100
2022-12-27T01:18:33.456Z,100
2022-12-27T01:23:34.944Z,100
2022-12-27T01:28:33.578Z,100
2022-12-27T01:33:33.551Z,100
2022-12-27T01:38:33.464Z,100
2022-12-27T01:43:44.305Z,100
2022-12-27T01:48:33.613Z,100
2022-12-27T01:53:34.525Z,100
2022-12-27T01:58:36.265Z,100
2022-12-27T02:03:35.187Z,100
2022-12-27T02:08:48.627Z,100
2022-12-27T02:13:35.623Z,100
2022-12-27T02:18:33.508Z,100
2022-12-27T02:23:56.377Z,100
2022-12-27T02:28:39.347Z,100
2022-12-27T02:33:36.931Z,100
2022-12-27T02:38:35.483Z,100
2022-12-27T02:43:45.386Z,100
2022-12-27T02:48:44.660Z,100
2022-12-27T02:53:37.664Z,100
2022-12-27T02:58:37.615Z,100
2022-12-27T03:03:44.526Z,100
2022-12-27T03:08:39.466Z,100
2022-12-27T03:13:47.882Z,100
2022-12-27T03:18:39.718Z,100
2022-12-27T03:23:45.124Z,100
2022-12-27T03:28:45.849Z,100
2022-12-27T03:33:35.031Z,100
2022-12-27T03:38:36.262Z,100
2022-12-27T03:43:33.744Z,100
2022-12-27T03:48:36.860Z,100
2022-12-27T03:53:36.100Z,100
2022-12-27T03:58:33.459Z,100
2022-12-27T04:03:33.560Z,100
2022-12-27T04:08:44.675Z,100
2022-12-27T04:13:44.694Z,100
2022-12-27T04:18:44.717Z,100
2022-12-27T04:23:44.659Z,100
2022-12-27T04:28:44.719Z,100
2022-12-27T04:33:44.844Z,100
2022-12-27T04:38:33.555Z,100
2022-12-27T04:43:44.874Z,100
2022-12-27T04:48:44.996Z,100
2022-12-27T04:53:45.639Z,100
2022-12-27T04:58:33.472Z,100
2022-12-27T05:03:33.727Z,100
2022-12-27T05:08:45.155Z,100
2022-12-27T05:13:44.606Z,100
2022-12-27T05:18:33.442Z,100
2022-12-27T05:23:44.565Z,100
2022-12-27T05:28:33.399Z,100
2022-12-27T05:33:34.239Z,100
2022-12-27T05:38:33.587Z,100
2022-12-27T05:43:33.790Z,100
2022-12-27T05:48:33.511Z,100
2022-12-27T05:53:33.453Z,100
2022-12-27T05:58:33.821Z,100
2022-12-27T06:03:33.534Z,100
2022-12-27T06:08:33.409Z,100
2022-12-27T06:13:33.522Z,100
2022-12-27T06:18:36.176Z,100
2022-12-27T06:23:33.475Z,100
2022-12-27T06:28:33.572Z,100
2022-12-27T06:33:33.729Z,100
2022-12-27T06:38:33.425Z,100
2022-12-27T06:43:33.477Z,100
2022-12-27T06:48:33.513Z,100
2022-12-27T06:53:33.460Z,100
2022-12-27T06:58:35.136Z,100
2022-12-27T07:03:33.402Z,100
2022-12-27T07:08:33.441Z,100
2022-12-27T07:13:33.537Z,100
2022-12-27T07:18:33.500Z,100
2022-12-27T07:23:33.420Z,100
2022-12-27T07:28:33.524Z,100
2022-12-27T07:33:33.496Z,100
2022-12-27T07:38:33.460Z,100
2022-12-27T07:43:33.595Z,100
2022-12-27T07:48:36.350Z,100
2022-12-27T07:53:33.530Z,100
2022-12-27T07:58:33.471Z,100
2022-12-27T08:03:33.432Z,100
2022-12-27T08:08:36.185Z,100
2022-12-27T08:13:33.466Z,100
2022-12-27T08:18:33.294Z,100
2022-12-27T08:23:33.437Z,100
2022-12-27T08:28:35.722Z,100
2022-12-27T08:33:33.527Z,100
2022-12-27T08:38:33.211Z,100
2022-12-27T08:43:33.613Z,100
2022-12-27T08:48:34.133Z,100
2022-12-27T08:53:33.849Z,100
2022-12-27T08:58:33.470Z,100
2022-12-27T09:03:33.229Z,100
2022-12-27T09:08:33.413Z,100
2022-12-27T09:13:33.502Z,100
2022-12-27T09:18:33.382Z,100
2022-12-27T09:23:33.316Z,100
2022-12-27T09:28:33.329Z,100
2022-12-27T09:33:33.683Z,100
2022-12-27T09:38:33.500Z,100
2022-12-27T09:43:38.446Z,100
2022-12-27T09:48:35.436Z,100
2022-12-27T09:53:37.393Z,100
2022-12-27T09:58:41.996Z,100
2022-12-27T10:03:34.389Z,100
2022-12-27T10:08:39.767Z,100
2022-12-27T10:13:42.266Z,100
2022-12-27T10:18:42.245Z,100
2022-12-27T10:23:34.731Z,100
2022-12-27T10:28:37.803Z,100
2022-12-27T10:33:34.132Z,100
2022-12-27T10:38:35.627Z,100
2022-12-27T10:43:37.134Z,100
2022-12-27T10:49:10.935Z,100
2022-12-27T10:53:42.164Z,100
2022-12-27T10:58:40.950Z,99.86816
2022-12-27T11:03:33.453Z,99.62012
2022-12-27T11:08:33.922Z,99.8418
2022-12-27T11:13:33.694Z,99.80469
2022-12-27T11:18:34.725Z,99.8418
2022-12-27T11:23:35.132Z,100
2022-12-27T11:28:38.097Z,100
2022-12-27T11:33:38.985Z,100
2022-12-27T11:38:34.418Z,100
2022-12-27T11:43:39.467Z,100
2022-12-27T11:48:35.057Z,100
2022-12-27T11:53:55.800Z,100
2022-12-27T11:58:47.268Z,100
2022-12-27T12:03:45.189Z,100
2022-12-27T12:08:52.405Z,100
2022-12-27T12:13:45.492Z,100
2022-12-27T12:18:46.029Z,100
2022-12-27T12:23:43.881Z,100
2022-12-27T12:28:58.599Z,100
2022-12-27T12:33:46.703Z,100
2022-12-27T12:38:37.862Z,100
2022-12-27T12:43:47.135Z,100
2022-12-27T12:48:51.106Z,100
2022-12-27T12:53:42.945Z,100
2022-12-27T12:58:53.097Z,100
2022-12-27T13:03:50.248Z,100
2022-12-27T13:08:36.082Z,100
2022-12-27T13:13:38.642Z,100
2022-12-27T13:18:38.640Z,100
2022-12-27T13:23:38.752Z,100
2022-12-27T13:28:38.922Z,100
2022-12-27T13:33:39.683Z,100
2022-12-27T13:38:42.619Z,100
2022-12-27T13:43:56.779Z,100
2022-12-27T13:48:47.137Z,100
2022-12-27T13:53:55.971Z,100
2022-12-27T13:58:48.209Z,100
2022-12-27T14:03:43.768Z,100
2022-12-27T14:08:41.736Z,100
2022-12-27T14:13:37.192Z,100
2022-12-27T14:18:53.585Z,100
2022-12-27T14:23:49.722Z,100
2022-12-27T14:28:56.193Z,100
2022-12-27T14:33:47.353Z,100
2022-12-27T14:38:53.044Z,100
2022-12-27T14:43:50.643Z,100
2022-12-27T14:48:44.430Z,100
2022-12-27T14:53:50.742Z,100
2022-12-27T14:58:45.180Z,100
2022-12-27T15:03:42.355Z,100
2022-12-27T15:08:45.021Z,100
2022-12-27T15:13:42.615Z,100
2022-12-27T15:18:40.443Z,100
2022-12-27T15:23:37.785Z,100
2022-12-27T15:28:37.611Z,100
2022-12-27T15:33:37.733Z,100
2022-12-27T15:38:51.071Z,100
2022-12-27T15:43:43.855Z,100
2022-12-27T15:48:59.816Z,100
2022-12-27T15:53:40.225Z,100
2022-12-27T15:58:33.440Z,100
2022-12-27T16:03:39.080Z,100
2022-12-27T16:08:38.558Z,100
2022-12-27T16:13:47.921Z,100
2022-12-27T16:18:50.454Z,100
2022-12-27T16:23:34.675Z,100
2022-12-27T16:44:30.654Z,100
2022-12-27T16:47:16.927Z,100
2022-12-27T16:52:12.312Z,100
2022-12-27T16:57:20.011Z,100
2022-12-27T17:02:23.124Z,100
2022-12-27T17:07:08.897Z,100
2022-12-27T17:12:16.996Z,100
2022-12-27T17:17:14.331Z,100
2022-12-27T17:22:10.240Z,100
2022-12-27T17:27:14.441Z,100
2022-12-27T17:32:12.875Z,100
2022-12-27T17:37:15.289Z,100
2022-12-27T17:42:35.281Z,100
2022-12-27T17:47:15.894Z,100
2022-12-27T17:52:20.230Z,100
2022-12-27T17:57:21.395Z,100
2022-12-27T18:02:10.443Z,100
2022-12-27T18:07:10.373Z,100
2022-12-27T18:12:14.224Z,100
2022-12-27T18:17:08.772Z,100
2022-12-27T18:22:08.819Z,100
2022-12-27T18:27:10.591Z,100
2022-12-27T18:32:10.251Z,100
2022-12-27T18:37:10.703Z,100
2022-12-27T18:42:15.966Z,100
2022-12-27T18:47:09.064Z,100
2022-12-27T18:52:15.028Z,100
2022-12-27T18:57:09.871Z,100
2022-12-27T19:02:24.919Z,100
2022-12-27T19:07:16.162Z,100
2022-12-27T19:12:09.837Z,100
2022-12-27T19:17:11.486Z,100
2022-12-27T19:22:18.922Z,100
2022-12-27T19:27:18.929Z,100
2022-12-27T19:32:11.132Z,100
2022-12-27T19:37:08.747Z,100
2022-12-27T19:42:10.256Z,100
2022-12-27T19:47:08.963Z,100
2022-12-27T19:52:13.265Z,100
2022-12-27T19:57:08.770Z,100
2022-12-27T20:02:09.158Z,100
2022-12-27T20:07:08.775Z,100
2022-12-27T20:12:09.389Z,100
2022-12-27T20:17:08.854Z,100
2022-12-27T20:22:08.973Z,100
2022-12-27T20:27:09.180Z,100
2022-12-27T20:32:08.950Z,100
2022-12-27T20:37:08.751Z,100
2022-12-27T20:42:09.031Z,100
2022-12-27T20:47:08.894Z,100
2022-12-27T20:52:08.841Z,100
2022-12-27T20:57:08.759Z,100
2022-12-27T21:02:08.843Z,99.97559
2022-12-27T21:07:08.959Z,99.95605
2022-12-27T21:12:08.885Z,99.70605
2022-12-27T21:17:09.247Z,99.94727
2022-12-27T21:22:08.731Z,99.85352
2022-12-27T21:27:08.679Z,99.82129
2022-12-27T21:32:08.991Z,99.74316
2022-12-27T21:37:13.075Z,99.69922
2022-12-27T21:42:08.863Z,99.97949
2022-12-27T21:47:09.123Z,99.75586
2022-12-27T21:52:25.749Z,99.6582
2022-12-27T21:57:08.690Z,99.82324
2022-12-27T22:02:08.879Z,99.74219
2022-12-27T22:07:08.792Z,100
2022-12-27T22:12:08.877Z,100
2022-12-27T22:17:08.631Z,100
2022-12-27T22:22:08.750Z,100
2022-12-27T22:27:08.777Z,100
2022-12-27T22:32:09.166Z,100
2022-12-27T22:37:08.758Z,100
2022-12-27T22:42:08.849Z,100
2022-12-27T22:47:26.439Z,100
2022-12-27T22:52:08.732Z,100
2022-12-27T22:57:08.702Z,100
2022-12-27T23:02:09.024Z,100
2022-12-27T23:07:09.049Z,100
2022-12-27T23:12:09.541Z,100
2022-12-27T23:17:09.022Z,100
2022-12-27T23:22:08.774Z,100
2022-12-27T23:27:08.625Z,100
2022-12-27T23:32:08.897Z,100
2022-12-27T23:37:08.680Z,100
2022-12-27T23:42:08.893Z,100
2022-12-27T23:47:09.176Z,100
2022-12-27T23:52:09.076Z,100
2022-12-27T23:57:19.857Z,100
